KLAF/LAF METAR and TAF weather

Enter ICAO airport designator
Station Type Date Time Source
KLAF METAR 2020/04/05 12:54 UTC NOAA

KLAF 051254Z 05009KT 10SM OVC008 06/03 A3016 RMK AO2 CIG 008V011 SLP217 T00560033


Station Type Date Time Source
KLAF Decoded METAR 2020/04/05 12:54 UTC NOAA

LAFAYETTE PURDUE UNIV AIRPORT , IN, United States (KLAF) 40-25N 86-57W 182M
Apr 05, 2020 - 08:54 AM EDT / 2020.04.05 1254 UTC
Wind: from the NE (050 degrees) at 10 MPH (9 KT):0
Visibility: 10 mile(s):0
Sky conditions: overcast
Temperature: 42.1 F (5.6 C)
Dew Point: 37.9 F (3.3 C)
Relative Humidity: 85%
Pressure (altimeter): 30.16 in. Hg (1021 hPa)
ob: KLAF 051254Z 05009KT 10SM OVC008 06/03 A3016 RMK AO2 CIG 008V011 SLP217 T00560033
cycle: 13

Station Type Date Time Source
KLAF TAF 2020/04/05 13:22 UTC NOAA

TAF
AMD KLAF 051320Z 0513/0612 05009KT P6SM SCT008 BKN012
TEMPO 0513/0515 BKN008
FM051500 04007KT P6SM BKN015
FM051600 04007KT P6SM BKN070
FM051900 03006KT P6SM SCT120

Example: see airport list